sensor_id;sensor_type;location;lat;lon;timestamp;P1;durP1;ratioP1;P2;durP2;ratioP2
75576;SDS011;64157;50.138;14.544;2022-11-15T00:50:22;86.43;;;36.38;;
75576;SDS011;64157;50.138;14.544;2022-11-15T00:52:48;80.20;;;35.33;;
75576;SDS011;64157;50.138;14.544;2022-11-15T00:55:16;92.07;;;37.60;;
75576;SDS011;64157;50.138;14.544;2022-11-15T00:57:43;93.75;;;39.22;;
75576;SDS011;64157;50.138;14.544;2022-11-15T01:00:09;104.60;;;41.63;;
75576;SDS011;64157;50.138;14.544;2022-11-15T01:02:35;103.70;;;41.35;;
75576;SDS011;64157;50.138;14.544;2022-11-15T01:05:01;102.00;;;41.45;;
75576;SDS011;64157;50.138;14.544;2022-11-15T01:07:27;102.20;;;42.38;;
75576;SDS011;64157;50.138;14.544;2022-11-15T01:09:52;101.47;;;37.90;;
75576;SDS011;64157;50.138;14.544;2022-11-15T01:12:17;106.70;;;40.63;;
75576;SDS011;64157;50.138;14.544;2022-11-15T01:14:44;98.75;;;38.22;;
75576;SDS011;64157;50.138;14.544;2022-11-15T01:17:09;103.55;;;41.22;;
75576;SDS011;64157;50.138;14.544;2022-11-15T01:19:34;96.03;;;39.50;;
75576;SDS011;64157;50.138;14.544;2022-11-15T01:22:00;109.78;;;42.40;;
75576;SDS011;64157;50.138;14.544;2022-11-15T01:24:25;108.63;;;41.83;;
75576;SDS011;64157;50.138;14.544;2022-11-15T01:26:51;97.18;;;40.67;;
75576;SDS011;64157;50.138;14.544;2022-11-15T01:29:16;104.30;;;40.80;;
75576;SDS011;64157;50.138;14.544;2022-11-15T01:31:42;104.57;;;40.83;;
75576;SDS011;64157;50.138;14.544;2022-11-15T01:34:07;112.43;;;43.13;;
75576;SDS011;64157;50.138;14.544;2022-11-15T01:36:33;116.47;;;44.45;;
75576;SDS011;64157;50.138;14.544;2022-11-15T01:38:59;133.48;;;49.72;;
75576;SDS011;64157;50.138;14.544;2022-11-15T01:41:26;150.60;;;46.90;;
75576;SDS011;64157;50.138;14.544;2022-11-15T01:44:25;237.45;;;44.28;;
75576;SDS011;64157;50.138;14.544;2022-11-15T01:47:00;152.35;;;38.55;;
75576;SDS011;64157;50.138;14.544;2022-11-15T01:49:32;283.33;;;40.70;;
75576;SDS011;64157;50.138;14.544;2022-11-15T01:52:00;250.27;;;46.97;;
75576;SDS011;64157;50.138;14.544;2022-11-15T01:54:28;331.45;;;49.95;;
75576;SDS011;64157;50.138;14.544;2022-11-15T01:56:56;209.95;;;40.65;;
75576;SDS011;64157;50.138;14.544;2022-11-15T01:59:29;305.65;;;48.13;;
75576;SDS011;64157;50.138;14.544;2022-11-15T02:01:55;256.95;;;46.58;;
75576;SDS011;64157;50.138;14.544;2022-11-15T02:04:26;188.25;;;45.78;;
75576;SDS011;64157;50.138;14.544;2022-11-15T02:06:54;157.45;;;39.22;;
75576;SDS011;64157;50.138;14.544;2022-11-15T02:09:20;167.77;;;41.75;;
75576;SDS011;64157;50.138;14.544;2022-11-15T02:11:46;139.52;;;38.42;;
75576;SDS011;64157;50.138;14.544;2022-11-15T02:14:13;270.70;;;45.47;;
75576;SDS011;64157;50.138;14.544;2022-11-15T02:17:03;229.00;;;43.85;;
75576;SDS011;64157;50.138;14.544;2022-11-15T02:34:07;151.27;;;37.15;;
75576;SDS011;64157;50.138;14.544;2022-11-15T02:39:27;148.15;;;36.20;;
75576;SDS011;64157;50.138;14.544;2022-11-15T02:42:04;204.05;;;42.00;;
75576;SDS011;64157;50.138;14.544;2022-11-15T02:44:53;105.45;;;28.80;;
75576;SDS011;64157;50.138;14.544;2022-11-15T02:47:22;272.77;;;45.20;;
75576;SDS011;64157;50.138;14.544;2022-11-15T02:49:53;286.63;;;48.65;;
75576;SDS011;64157;50.138;14.544;2022-11-15T02:52:22;258.55;;;44.95;;
75576;SDS011;64157;50.138;14.544;2022-11-15T02:54:53;353.45;;;52.50;;
75576;SDS011;64157;50.138;14.544;2022-11-15T02:57:19;267.20;;;46.15;;
75576;SDS011;64157;50.138;14.544;2022-11-15T03:00:34;280.48;;;49.28;;
75576;SDS011;64157;50.138;14.544;2022-11-15T03:11:07;86.82;;;27.33;;
75576;SDS011;64157;50.138;14.544;2022-11-15T03:13:38;86.80;;;23.92;;
75576;SDS011;64157;50.138;14.544;2022-11-15T03:16:29;66.25;;;22.77;;
75576;SDS011;64157;50.138;14.544;2022-11-15T03:21:54;43.15;;;17.30;;
75576;SDS011;64157;50.138;14.544;2022-11-15T03:24:24;69.55;;;24.30;;
75576;SDS011;64157;50.138;14.544;2022-11-15T03:26:52;186.07;;;32.90;;
75576;SDS011;64157;50.138;14.544;2022-11-15T03:29:22;210.18;;;32.97;;
75576;SDS011;64157;50.138;14.544;2022-11-15T03:31:52;144.75;;;31.13;;
75576;SDS011;64157;50.138;14.544;2022-11-15T03:34:27;177.00;;;31.08;;
75576;SDS011;64157;50.138;14.544;2022-11-15T03:36:57;158.00;;;31.92;;
75576;SDS011;64157;50.138;14.544;2022-11-15T03:39:23;112.63;;;24.85;;
75576;SDS011;64157;50.138;14.544;2022-11-15T03:47:21;193.88;;;35.40;;
75576;SDS011;64157;50.138;14.544;2022-11-15T03:49:59;128.30;;;31.40;;
75576;SDS011;64157;50.138;14.544;2022-11-15T03:52:35;138.07;;;32.03;;
75576;SDS011;64157;50.138;14.544;2022-11-15T03:58:47;152.52;;;27.45;;
75576;SDS011;64157;50.138;14.544;2022-11-15T04:01:18;102.60;;;23.90;;
75576;SDS011;64157;50.138;14.544;2022-11-15T04:04:08;149.95;;;28.65;;
75576;SDS011;64157;50.138;14.544;2022-11-15T04:06:34;133.25;;;26.15;;
75576;SDS011;64157;50.138;14.544;2022-11-15T04:09:05;94.55;;;21.88;;
75576;SDS011;64157;50.138;14.544;2022-11-15T04:11:46;128.68;;;29.40;;
75576;SDS011;64157;50.138;14.544;2022-11-15T04:14:12;105.15;;;25.48;;
75576;SDS011;64157;50.138;14.544;2022-11-15T04:16:38;101.03;;;25.95;;
75576;SDS011;64157;50.138;14.544;2022-11-15T04:19:27;41.08;;;16.08;;
75576;SDS011;64157;50.138;14.544;2022-11-15T04:22:12;93.35;;;24.75;;
75576;SDS011;64157;50.138;14.544;2022-11-15T04:24:59;60.47;;;18.02;;
75576;SDS011;64157;50.138;14.544;2022-11-15T04:27:37;63.20;;;18.73;;
75576;SDS011;64157;50.138;14.544;2022-11-15T04:30:11;99.95;;;24.15;;
75576;SDS011;64157;50.138;14.544;2022-11-15T04:42:54;55.67;;;17.42;;
75576;SDS011;64157;50.138;14.544;2022-11-15T05:03:14;105.00;;;25.48;;
75576;SDS011;64157;50.138;14.544;2022-11-15T05:06:32;87.28;;;20.52;;
75576;SDS011;64157;50.138;14.544;2022-11-15T05:19:09;201.25;;;29.65;;
75576;SDS011;64157;50.138;14.544;2022-11-15T05:21:35;74.65;;;21.15;;
75576;SDS011;64157;50.138;14.544;2022-11-15T05:24:04;154.75;;;29.70;;
75576;SDS011;64157;50.138;14.544;2022-11-15T05:26:30;166.52;;;29.23;;
75576;SDS011;64157;50.138;14.544;2022-11-15T05:28:56;155.75;;;25.48;;
75576;SDS011;64157;50.138;14.544;2022-11-15T05:34:58;59.85;;;16.75;;
75576;SDS011;64157;50.138;14.544;2022-11-15T05:37:34;158.85;;;28.95;;
75576;SDS011;64157;50.138;14.544;2022-11-15T05:40:32;170.85;;;28.80;;
75576;SDS011;64157;50.138;14.544;2022-11-15T05:43:00;110.40;;;22.25;;
75576;SDS011;64157;50.138;14.544;2022-11-15T05:45:27;179.60;;;28.25;;
75576;SDS011;64157;50.138;14.544;2022-11-15T05:47:54;145.88;;;22.35;;
75576;SDS011;64157;50.138;14.544;2022-11-15T05:50:23;160.68;;;26.23;;
75576;SDS011;64157;50.138;14.544;2022-11-15T05:52:52;114.82;;;19.85;;
75576;SDS011;64157;50.138;14.544;2022-11-15T05:55:29;175.98;;;24.45;;
75576;SDS011;64157;50.138;14.544;2022-11-15T05:57:55;171.15;;;25.45;;
75576;SDS011;64157;50.138;14.544;2022-11-15T06:00:22;186.93;;;23.30;;
75576;SDS011;64157;50.138;14.544;2022-11-15T06:02:47;145.18;;;25.95;;
75576;SDS011;64157;50.138;14.544;2022-11-15T06:05:13;114.35;;;18.92;;
75576;SDS011;64157;50.138;14.544;2022-11-15T06:07:38;134.60;;;19.98;;
75576;SDS011;64157;50.138;14.544;2022-11-15T06:10:04;241.27;;;28.27;;
75576;SDS011;64157;50.138;14.544;2022-11-15T06:12:30;112.22;;;21.08;;
75576;SDS011;64157;50.138;14.544;2022-11-15T06:14:55;112.63;;;21.00;;
75576;SDS011;64157;50.138;14.544;2022-11-15T06:17:21;205.40;;;27.42;;
75576;SDS011;64157;50.138;14.544;2022-11-15T06:19:46;243.70;;;33.40;;
75576;SDS011;64157;50.138;14.544;2022-11-15T06:22:12;220.13;;;31.45;;
75576;SDS011;64157;50.138;14.544;2022-11-15T06:24:38;239.27;;;28.90;;
75576;SDS011;64157;50.138;14.544;2022-11-15T06:27:19;171.85;;;23.33;;
75576;SDS011;64157;50.138;14.544;2022-11-15T06:33:54;57.20;;;14.75;;
75576;SDS011;64157;50.138;14.544;2022-11-15T06:36:26;125.47;;;23.17;;
75576;SDS011;64157;50.138;14.544;2022-11-15T06:38:52;151.02;;;28.00;;
75576;SDS011;64157;50.138;14.544;2022-11-15T06:41:18;149.00;;;22.58;;
75576;SDS011;64157;50.138;14.544;2022-11-15T06:43:46;219.93;;;29.02;;
75576;SDS011;64157;50.138;14.544;2022-11-15T06:46:11;171.80;;;24.92;;
75576;SDS011;64157;50.138;14.544;2022-11-15T06:48:40;134.65;;;20.98;;
75576;SDS011;64157;50.138;14.544;2022-11-15T06:51:24;151.95;;;22.98;;
75576;SDS011;64157;50.138;14.544;2022-11-15T06:53:52;73.57;;;18.33;;
75576;SDS011;64157;50.138;14.544;2022-11-15T06:56:18;118.45;;;22.42;;
75576;SDS011;64157;50.138;14.544;2022-11-15T06:58:43;152.55;;;23.60;;
75576;SDS011;64157;50.138;14.544;2022-11-15T07:01:10;133.93;;;24.67;;
75576;SDS011;64157;50.138;14.544;2022-11-15T07:03:37;167.30;;;23.17;;
75576;SDS011;64157;50.138;14.544;2022-11-15T07:06:06;111.45;;;24.70;;
75576;SDS011;64157;50.138;14.544;2022-11-15T07:08:32;118.85;;;22.25;;
75576;SDS011;64157;50.138;14.544;2022-11-15T07:10:58;177.30;;;23.05;;
75576;SDS011;64157;50.138;14.544;2022-11-15T07:13:25;115.25;;;19.88;;
75576;SDS011;64157;50.138;14.544;2022-11-15T07:15:52;123.75;;;20.52;;
75576;SDS011;64157;50.138;14.544;2022-11-15T07:18:18;76.75;;;17.02;;
75576;SDS011;64157;50.138;14.544;2022-11-15T07:20:43;187.45;;;25.52;;
75576;SDS011;64157;50.138;14.544;2022-11-15T07:23:09;152.90;;;22.98;;
75576;SDS011;64157;50.138;14.544;2022-11-15T07:25:35;101.78;;;20.25;;
75576;SDS011;64157;50.138;14.544;2022-11-15T07:28:00;102.45;;;18.13;;
75576;SDS011;64157;50.138;14.544;2022-11-15T07:30:26;153.88;;;24.63;;
75576;SDS011;64157;50.138;14.544;2022-11-15T07:33:01;242.85;;;30.23;;
75576;SDS011;64157;50.138;14.544;2022-11-15T07:35:26;140.20;;;22.92;;
75576;SDS011;64157;50.138;14.544;2022-11-15T07:37:54;229.13;;;30.80;;
75576;SDS011;64157;50.138;14.544;2022-11-15T07:40:20;166.90;;;24.65;;
75576;SDS011;64157;50.138;14.544;2022-11-15T07:42:47;272.27;;;30.38;;
75576;SDS011;64157;50.138;14.544;2022-11-15T07:45:18;266.58;;;37.67;;
75576;SDS011;64157;50.138;14.544;2022-11-15T07:47:47;244.15;;;28.55;;
75576;SDS011;64157;50.138;14.544;2022-11-15T07:50:13;298.02;;;29.65;;
75576;SDS011;64157;50.138;14.544;2022-11-15T07:52:39;242.88;;;27.45;;
75576;SDS011;64157;50.138;14.544;2022-11-15T07:55:04;264.75;;;29.25;;
75576;SDS011;64157;50.138;14.544;2022-11-15T07:57:30;52.13;;;12.40;;
75576;SDS011;64157;50.138;14.544;2022-11-15T07:59:56;270.33;;;26.70;;
75576;SDS011;64157;50.138;14.544;2022-11-15T08:02:21;218.95;;;23.58;;
75576;SDS011;64157;50.138;14.544;2022-11-15T08:04:47;339.52;;;33.47;;
75576;SDS011;64157;50.138;14.544;2022-11-15T08:07:12;259.58;;;26.23;;
75576;SDS011;64157;50.138;14.544;2022-11-15T08:09:38;350.65;;;31.52;;
75576;SDS011;64157;50.138;14.544;2022-11-15T08:12:03;168.32;;;27.45;;
75576;SDS011;64157;50.138;14.544;2022-11-15T08:14:29;269.50;;;33.72;;
75576;SDS011;64157;50.138;14.544;2022-11-15T08:16:54;236.40;;;31.48;;
75576;SDS011;64157;50.138;14.544;2022-11-15T08:19:20;147.70;;;23.40;;
75576;SDS011;64157;50.138;14.544;2022-11-15T08:21:45;138.43;;;28.40;;
75576;SDS011;64157;50.138;14.544;2022-11-15T08:24:11;207.30;;;25.27;;
75576;SDS011;64157;50.138;14.544;2022-11-15T08:26:36;152.98;;;24.25;;
75576;SDS011;64157;50.138;14.544;2022-11-15T08:29:02;150.10;;;23.55;;
75576;SDS011;64157;50.138;14.544;2022-11-15T08:31:27;143.52;;;23.40;;
75576;SDS011;64157;50.138;14.544;2022-11-15T08:33:53;172.07;;;26.77;;
75576;SDS011;64157;50.138;14.544;2022-11-15T08:36:19;89.18;;;23.23;;
75576;SDS011;64157;50.138;14.544;2022-11-15T08:38:44;83.57;;;23.00;;
75576;SDS011;64157;50.138;14.544;2022-11-15T08:41:12;71.57;;;22.08;;
75576;SDS011;64157;50.138;14.544;2022-11-15T08:43:43;96.40;;;22.60;;
75576;SDS011;64157;50.138;14.544;2022-11-15T08:46:10;109.30;;;22.63;;
75576;SDS011;64157;50.138;14.544;2022-11-15T08:48:37;94.75;;;20.35;;
75576;SDS011;64157;50.138;14.544;2022-11-15T08:51:03;88.32;;;24.15;;
75576;SDS011;64157;50.138;14.544;2022-11-15T08:53:28;111.22;;;23.40;;
75576;SDS011;64157;50.138;14.544;2022-11-15T08:55:54;118.85;;;21.52;;
75576;SDS011;64157;50.138;14.544;2022-11-15T08:58:19;142.27;;;22.58;;
75576;SDS011;64157;50.138;14.544;2022-11-15T09:00:45;112.20;;;23.77;;
75576;SDS011;64157;50.138;14.544;2022-11-15T09:03:10;135.70;;;25.00;;
75576;SDS011;64157;50.138;14.544;2022-11-15T09:05:36;92.45;;;20.73;;
75576;SDS011;64157;50.138;14.544;2022-11-15T09:08:02;97.82;;;19.00;;
75576;SDS011;64157;50.138;14.544;2022-11-15T09:10:28;130.82;;;20.15;;
75576;SDS011;64157;50.138;14.544;2022-11-15T09:12:56;133.18;;;21.48;;
75576;SDS011;64157;50.138;14.544;2022-11-15T09:15:22;93.10;;;20.50;;
75576;SDS011;64157;50.138;14.544;2022-11-15T09:17:47;97.93;;;20.33;;
75576;SDS011;64157;50.138;14.544;2022-11-15T09:20:12;93.32;;;20.00;;
75576;SDS011;64157;50.138;14.544;2022-11-15T09:22:38;40.28;;;16.77;;
75576;SDS011;64157;50.138;14.544;2022-11-15T09:25:04;79.30;;;21.30;;
75576;SDS011;64157;50.138;14.544;2022-11-15T09:27:30;41.63;;;15.77;;
75576;SDS011;64157;50.138;14.544;2022-11-15T09:29:56;71.00;;;17.75;;
75576;SDS011;64157;50.138;14.544;2022-11-15T09:32:21;27.70;;;13.82;;
75576;SDS011;64157;50.138;14.544;2022-11-15T09:34:50;62.20;;;18.30;;
75576;SDS011;64157;50.138;14.544;2022-11-15T09:37:15;85.65;;;21.83;;
75576;SDS011;64157;50.138;14.544;2022-11-15T09:39:41;85.88;;;22.90;;
75576;SDS011;64157;50.138;14.544;2022-11-15T09:50:49;29.00;;;12.68;;
75576;SDS011;64157;50.138;14.544;2022-11-15T09:53:27;38.85;;;18.08;;
75576;SDS011;64157;50.138;14.544;2022-11-15T09:56:01;46.60;;;20.05;;
75576;SDS011;64157;50.138;14.544;2022-11-15T10:04:16;78.88;;;21.88;;
75576;SDS011;64157;50.138;14.544;2022-11-15T10:06:43;45.60;;;19.38;;
75576;SDS011;64157;50.138;14.544;2022-11-15T10:09:27;63.88;;;22.05;;
75576;SDS011;64157;50.138;14.544;2022-11-15T10:12:12;39.00;;;16.57;;
75576;SDS011;64157;50.138;14.544;2022-11-15T10:14:40;50.10;;;21.75;;
75576;SDS011;64157;50.138;14.544;2022-11-15T10:17:10;95.10;;;22.80;;
75576;SDS011;64157;50.138;14.544;2022-11-15T10:27:34;38.25;;;16.27;;
75576;SDS011;64157;50.138;14.544;2022-11-15T10:30:00;68.80;;;23.30;;
75576;SDS011;64157;50.138;14.544;2022-11-15T10:32:26;42.35;;;19.58;;
75576;SDS011;64157;50.138;14.544;2022-11-15T10:34:52;58.67;;;23.13;;
75576;SDS011;64157;50.138;14.544;2022-11-15T10:37:27;131.18;;;27.00;;
75576;SDS011;64157;50.138;14.544;2022-11-15T10:40:14;94.03;;;24.05;;
75576;SDS011;64157;50.138;14.544;2022-11-15T10:42:42;76.97;;;25.70;;
75576;SDS011;64157;50.138;14.544;2022-11-15T10:45:23;88.57;;;21.67;;
75576;SDS011;64157;50.138;14.544;2022-11-15T10:47:49;49.95;;;18.70;;
75576;SDS011;64157;50.138;14.544;2022-11-15T10:50:29;44.22;;;18.77;;
75576;SDS011;64157;50.138;14.544;2022-11-15T10:52:56;60.30;;;21.77;;
75576;SDS011;64157;50.138;14.544;2022-11-15T10:55:31;34.00;;;11.95;;
75576;SDS011;64157;50.138;14.544;2022-11-15T10:58:20;51.60;;;21.63;;
75576;SDS011;64157;50.138;14.544;2022-11-15T11:00:46;58.30;;;21.50;;
75576;SDS011;64157;50.138;14.544;2022-11-15T11:06:16;51.17;;;20.63;;
75576;SDS011;64157;50.138;14.544;2022-11-15T11:09:03;52.78;;;19.25;;
75576;SDS011;64157;50.138;14.544;2022-11-15T11:11:51;53.35;;;18.85;;
75576;SDS011;64157;50.138;14.544;2022-11-15T11:19:35;54.55;;;19.65;;
75576;SDS011;64157;50.138;14.544;2022-11-15T11:25:34;48.67;;;19.27;;
75576;SDS011;64157;50.138;14.544;2022-11-15T11:28:18;40.88;;;18.52;;
75576;SDS011;64157;50.138;14.544;2022-11-15T11:48:33;60.50;;;18.05;;
75576;SDS011;64157;50.138;14.544;2022-11-15T11:50:39;48.85;;;18.50;;
75576;SDS011;64157;50.138;14.544;2022-11-15T11:55:54;35.45;;;17.00;;
75576;SDS011;64157;50.138;14.544;2022-11-15T11:58:41;54.13;;;18.48;;
75576;SDS011;64157;50.138;14.544;2022-11-15T12:01:26;54.33;;;19.23;;
75576;SDS011;64157;50.138;14.544;2022-11-15T12:07:36;48.83;;;19.42;;
75576;SDS011;64157;50.138;14.544;2022-11-15T12:15:20;60.85;;;18.92;;
75576;SDS011;64157;50.138;14.544;2022-11-15T12:17:46;53.92;;;18.20;;
75576;SDS011;64157;50.138;14.544;2022-11-15T12:20:22;78.25;;;18.77;;
75576;SDS011;64157;50.138;14.544;2022-11-15T12:22:55;72.95;;;19.40;;
75576;SDS011;64157;50.138;14.544;2022-11-15T12:27:57;60.67;;;17.20;;
75576;SDS011;64157;50.138;14.544;2022-11-15T12:30:44;61.25;;;21.45;;
75576;SDS011;64157;50.138;14.544;2022-11-15T12:35:58;35.05;;;14.90;;
75576;SDS011;64157;50.138;14.544;2022-11-15T12:41:16;60.53;;;20.02;;
75576;SDS011;64157;50.138;14.544;2022-11-15T12:43:43;113.65;;;20.05;;
75576;SDS011;64157;50.138;14.544;2022-11-15T12:48:52;67.45;;;18.60;;
75576;SDS011;64157;50.138;14.544;2022-11-15T12:51:19;46.22;;;16.02;;
75576;SDS011;64157;50.138;14.544;2022-11-15T12:53:46;44.95;;;15.77;;
75576;SDS011;64157;50.138;14.544;2022-11-15T13:06:44;127.00;;;25.27;;
75576;SDS011;64157;50.138;14.544;2022-11-15T13:11:58;57.58;;;18.35;;
75576;SDS011;64157;50.138;14.544;2022-11-15T13:14:39;85.63;;;25.42;;
75576;SDS011;64157;50.138;14.544;2022-11-15T13:19:55;71.18;;;19.30;;
75576;SDS011;64157;50.138;14.544;2022-11-15T13:22:29;86.35;;;23.35;;
75576;SDS011;64157;50.138;14.544;2022-11-15T13:27:57;66.10;;;22.08;;
75576;SDS011;64157;50.138;14.544;2022-11-15T13:30:24;113.40;;;23.90;;
75576;SDS011;64157;50.138;14.544;2022-11-15T13:32:51;134.25;;;25.65;;
75576;SDS011;64157;50.138;14.544;2022-11-15T13:35:26;97.68;;;25.00;;
75576;SDS011;64157;50.138;14.544;2022-11-15T13:37:55;84.20;;;24.55;;
75576;SDS011;64157;50.138;14.544;2022-11-15T13:40:28;111.90;;;22.75;;
75576;SDS011;64157;50.138;14.544;2022-11-15T13:42:59;95.43;;;23.23;;
75576;SDS011;64157;50.138;14.544;2022-11-15T13:45:24;58.97;;;20.67;;
75576;SDS011;64157;50.138;14.544;2022-11-15T13:47:55;61.75;;;20.83;;
75576;SDS011;64157;50.138;14.544;2022-11-15T13:50:32;58.63;;;19.45;;
75576;SDS011;64157;50.138;14.544;2022-11-15T13:53:02;65.07;;;22.08;;
75576;SDS011;64157;50.138;14.544;2022-11-15T13:55:29;48.05;;;17.52;;
75576;SDS011;64157;50.138;14.544;2022-11-15T13:57:58;66.72;;;19.55;;
75576;SDS011;64157;50.138;14.544;2022-11-15T14:00:37;60.08;;;19.42;;
75576;SDS011;64157;50.138;14.544;2022-11-15T14:05:31;65.20;;;21.00;;
75576;SDS011;64157;50.138;14.544;2022-11-15T14:07:58;65.05;;;20.20;;
75576;SDS011;64157;50.138;14.544;2022-11-15T14:41:34;35.60;;;15.93;;
75576;SDS011;64157;50.138;14.544;2022-11-15T14:50:51;46.67;;;18.20;;
75576;SDS011;64157;50.138;14.544;2022-11-15T16:44:17;56.50;;;18.92;;
75576;SDS011;64157;50.138;14.544;2022-11-15T17:50:38;47.42;;;18.23;;
75576;SDS011;64157;50.138;14.544;2022-11-15T17:53:44;62.75;;;19.98;;
75576;SDS011;64157;50.138;14.544;2022-11-15T17:59:53;47.30;;;16.65;;
75576;SDS011;64157;50.138;14.544;2022-11-15T18:13:03;49.35;;;19.85;;
75576;SDS011;64157;50.138;14.544;2022-11-15T18:15:40;52.88;;;19.15;;
75576;SDS011;64157;50.138;14.544;2022-11-15T18:21:44;52.80;;;18.85;;
75576;SDS011;64157;50.138;14.544;2022-11-15T18:24:43;49.55;;;20.08;;
75576;SDS011;64157;50.138;14.544;2022-11-15T18:53:15;44.63;;;15.95;;
75576;SDS011;64157;50.138;14.544;2022-11-15T18:55:40;40.55;;;16.05;;
75576;SDS011;64157;50.138;14.544;2022-11-15T18:58:15;39.97;;;15.73;;
75576;SDS011;64157;50.138;14.544;2022-11-15T19:00:41;36.60;;;15.02;;
75576;SDS011;64157;50.138;14.544;2022-11-15T19:03:07;36.80;;;15.68;;
75576;SDS011;64157;50.138;14.544;2022-11-15T19:05:33;36.40;;;16.08;;
75576;SDS011;64157;50.138;14.544;2022-11-15T19:07:59;42.70;;;16.25;;
75576;SDS011;64157;50.138;14.544;2022-11-15T19:10:25;47.03;;;17.08;;
75576;SDS011;64157;50.138;14.544;2022-11-15T19:12:50;36.63;;;17.15;;
75576;SDS011;64157;50.138;14.544;2022-11-15T19:15:16;44.10;;;17.02;;
75576;SDS011;64157;50.138;14.544;2022-11-15T19:17:42;41.97;;;16.83;;
75576;SDS011;64157;50.138;14.544;2022-11-15T19:20:11;48.28;;;18.38;;
75576;SDS011;64157;50.138;14.544;2022-11-15T19:32:06;48.67;;;21.83;;
75576;SDS011;64157;50.138;14.544;2022-11-15T19:34:32;49.80;;;19.05;;
75576;SDS011;64157;50.138;14.544;2022-11-15T19:36:59;51.42;;;17.98;;
75576;SDS011;64157;50.138;14.544;2022-11-15T19:39:33;43.67;;;15.95;;
75576;SDS011;64157;50.138;14.544;2022-11-15T19:41:59;37.03;;;16.60;;
75576;SDS011;64157;50.138;14.544;2022-11-15T19:44:25;41.33;;;16.85;;
75576;SDS011;64157;50.138;14.544;2022-11-15T19:46:57;40.53;;;17.83;;
75576;SDS011;64157;50.138;14.544;2022-11-15T19:49:23;44.25;;;16.60;;
75576;SDS011;64157;50.138;14.544;2022-11-15T19:51:56;33.53;;;15.73;;
75576;SDS011;64157;50.138;14.544;2022-11-15T19:54:28;30.25;;;14.65;;
75576;SDS011;64157;50.138;14.544;2022-11-15T19:56:54;38.08;;;16.50;;
75576;SDS011;64157;50.138;14.544;2022-11-15T19:59:21;37.15;;;15.85;;
75576;SDS011;64157;50.138;14.544;2022-11-15T20:01:47;31.48;;;15.00;;
75576;SDS011;64157;50.138;14.544;2022-11-15T20:04:14;33.05;;;15.48;;
75576;SDS011;64157;50.138;14.544;2022-11-15T20:06:43;42.15;;;19.52;;
75576;SDS011;64157;50.138;14.544;2022-11-15T20:09:10;35.50;;;17.05;;
75576;SDS011;64157;50.138;14.544;2022-11-15T20:11:38;46.30;;;18.60;;
75576;SDS011;64157;50.138;14.544;2022-11-15T20:14:04;48.70;;;19.50;;
75576;SDS011;64157;50.138;14.544;2022-11-15T20:16:34;44.63;;;18.33;;
75576;SDS011;64157;50.138;14.544;2022-11-15T20:19:00;42.70;;;19.40;;
75576;SDS011;64157;50.138;14.544;2022-11-15T20:21:26;44.45;;;20.05;;
75576;SDS011;64157;50.138;14.544;2022-11-15T20:24:13;47.78;;;19.17;;
75576;SDS011;64157;50.138;14.544;2022-11-15T20:26:38;46.17;;;17.25;;
75576;SDS011;64157;50.138;14.544;2022-11-15T20:29:04;47.55;;;19.63;;
75576;SDS011;64157;50.138;14.544;2022-11-15T20:31:30;52.90;;;19.35;;
75576;SDS011;64157;50.138;14.544;2022-11-15T20:33:56;46.85;;;19.45;;
75576;SDS011;64157;50.138;14.544;2022-11-15T20:36:22;55.03;;;21.77;;
75576;SDS011;64157;50.138;14.544;2022-11-15T20:38:48;53.53;;;21.02;;
75576;SDS011;64157;50.138;14.544;2022-11-15T20:44:11;60.65;;;21.35;;
75576;SDS011;64157;50.138;14.544;2022-11-15T20:46:36;58.00;;;23.45;;
75576;SDS011;64157;50.138;14.544;2022-11-15T20:49:02;67.72;;;23.08;;
75576;SDS011;64157;50.138;14.544;2022-11-15T20:51:27;56.13;;;22.65;;
75576;SDS011;64157;50.138;14.544;2022-11-15T20:53:56;63.42;;;21.85;;
75576;SDS011;64157;50.138;14.544;2022-11-15T20:56:22;55.70;;;22.08;;
75576;SDS011;64157;50.138;14.544;2022-11-15T20:58:50;61.75;;;22.83;;
75576;SDS011;64157;50.138;14.544;2022-11-15T21:01:24;59.27;;;22.23;;
75576;SDS011;64157;50.138;14.544;2022-11-15T21:04:24;54.67;;;19.50;;
75576;SDS011;64157;50.138;14.544;2022-11-15T21:06:53;55.92;;;21.52;;
75576;SDS011;64157;50.138;14.544;2022-11-15T21:09:18;51.28;;;21.02;;
75576;SDS011;64157;50.138;14.544;2022-11-15T21:12:02;56.22;;;22.08;;
75576;SDS011;64157;50.138;14.544;2022-11-15T21:14:40;49.40;;;21.98;;
75576;SDS011;64157;50.138;14.544;2022-11-15T21:17:08;61.10;;;21.80;;
75576;SDS011;64157;50.138;14.544;2022-11-15T21:19:34;51.17;;;21.25;;
75576;SDS011;64157;50.138;14.544;2022-11-15T21:21:59;50.92;;;20.73;;
75576;SDS011;64157;50.138;14.544;2022-11-15T21:24:26;56.17;;;21.55;;
75576;SDS011;64157;50.138;14.544;2022-11-15T21:26:52;49.45;;;21.20;;
75576;SDS011;64157;50.138;14.544;2022-11-15T21:29:18;48.85;;;20.00;;
75576;SDS011;64157;50.138;14.544;2022-11-15T21:31:44;55.22;;;21.52;;
75576;SDS011;64157;50.138;14.544;2022-11-15T21:34:13;57.65;;;21.75;;
75576;SDS011;64157;50.138;14.544;2022-11-15T21:36:39;59.58;;;20.98;;
75576;SDS011;64157;50.138;14.544;2022-11-15T21:39:05;67.15;;;23.50;;
75576;SDS011;64157;50.138;14.544;2022-11-15T21:41:31;77.65;;;22.60;;
75576;SDS011;64157;50.138;14.544;2022-11-15T21:43:57;57.80;;;22.48;;
75576;SDS011;64157;50.138;14.544;2022-11-15T21:46:23;55.72;;;21.42;;
75576;SDS011;64157;50.138;14.544;2022-11-15T21:48:49;57.78;;;21.17;;
75576;SDS011;64157;50.138;14.544;2022-11-15T21:51:15;57.88;;;21.42;;
75576;SDS011;64157;50.138;14.544;2022-11-15T21:53:40;42.85;;;19.15;;
75576;SDS011;64157;50.138;14.544;2022-11-15T21:56:06;55.97;;;20.42;;
75576;SDS011;64157;50.138;14.544;2022-11-15T21:58:32;51.90;;;21.45;;
75576;SDS011;64157;50.138;14.544;2022-11-15T22:00:58;66.28;;;21.58;;
75576;SDS011;64157;50.138;14.544;2022-11-15T22:03:42;52.17;;;20.35;;
75576;SDS011;64157;50.138;14.544;2022-11-15T22:06:08;58.17;;;20.73;;
75576;SDS011;64157;50.138;14.544;2022-11-15T22:08:34;45.47;;;18.85;;
75576;SDS011;64157;50.138;14.544;2022-11-15T22:10:59;51.63;;;18.92;;
75576;SDS011;64157;50.138;14.544;2022-11-15T22:13:25;53.70;;;17.75;;
75576;SDS011;64157;50.138;14.544;2022-11-15T22:15:51;46.00;;;19.10;;
75576;SDS011;64157;50.138;14.544;2022-11-15T22:18:18;44.78;;;18.17;;
75576;SDS011;64157;50.138;14.544;2022-11-15T22:21:18;56.38;;;20.73;;
75576;SDS011;64157;50.138;14.544;2022-11-15T22:23:38;53.00;;;21.27;;
75576;SDS011;64157;50.138;14.544;2022-11-15T22:26:04;53.65;;;20.10;;
75576;SDS011;64157;50.138;14.544;2022-11-15T22:28:30;51.45;;;20.20;;
75576;SDS011;64157;50.138;14.544;2022-11-15T22:30:55;56.05;;;20.70;;
75576;SDS011;64157;50.138;14.544;2022-11-15T22:33:23;67.13;;;21.95;;
75576;SDS011;64157;50.138;14.544;2022-11-15T22:38:17;60.53;;;21.15;;